• Join FlightAware (Why Join?)
  • Login
  • US Flag 
03:13PM EDT


 

Airport Tracker/Info


-or-


 

Live Flight TrackerFlight Track Log ✈ N449ND ✈ 18-Mar-2014 ✈ KFPR - KVRB

Flight Track Log - Related Links

Times and Time Zones

All times are in EDT time to prevent confusion due to time zone crossing. See the N449ND flight status page for this flight to view local times or setup timezone preferences in your user account.

Time Position Orientation Groundspeed Altitude Reporting Facility
EDT Latitude Longitude Course Direction KTS MPH feet Rate Location/Type
07:41AM 27.4972 -80.3731 328° Northwest 63 72 200  Level Miami Center
07:42AM 27.4953 -80.3906 263° West 59 68 900 600 Climbing Miami Center
07:43AM 27.4911 -80.4078 255° West 58 67 1,500 540 Climbing Miami Center
07:44AM 27.4900 -80.4231 265° West 51 59 2,100 420 Climbing Miami Center
07:45AM 27.4975 -80.3726 152° Southeast  Level Estimated
07:45AM 27.4700 -80.4103 150° Southeast 100 115 2,400  Level Miami Center
07:46AM 27.4975 -80.3726 328° Northwest  Level Estimated
07:46AM 27.4525 -80.3728 118° Southeast 123 142 2,900  Level Miami Center
07:47AM 27.4369 -80.3306 113° Southeast 147 169 3,100 -120 Climbing Miami Center
07:48AM 27.4569 -80.2994 54° Northeast 131 151 2,700 -540 Descending Miami Center
07:49AM 27.4850 -80.2814 30° Northeast 116 133 2,100 -300 Descending Miami Center
07:50AM 27.5083 -80.2511 49° Northeast 119 137 2,100 -60 Level Miami Center
07:51AM 27.5328 -80.2297 38° Northeast 118 136 2,000  Descending Miami Center
07:52AM 27.5542 -80.2181 26° Northeast 113 130 2,100  Climbing Miami Center
07:53AM 27.5817 -80.2208 355° North 85 98 2,100 -60 Level Miami Center
07:54AM 27.5919 -80.2406 300° West 74 85 2,000 -120 Descending Miami Center
07:55AM 27.5997 -80.2622 292° West 73 84 1,900 -120 Descending Miami Center
07:56AM 27.6058 -80.2822 289° West 72 83 1,800 -60 Descending Miami Center
07:57AM 27.6142 -80.3047 293° West 73 84 1,800 -60 Level Miami Center
07:58AM 27.6206 -80.3236 291° West 66 76 1,700 -300 Descending Miami Center
07:59AM 27.6278 -80.3428 293° West 66 76 1,200 -540 Descending Miami Center
08:00AM 27.6356 -80.3647 292° West 67 77 700 -360 Descending Miami Center
08:01AM 27.6436 -80.3881 291° West 73 84 500 -120 Descending Miami Center
08:02AM 27.6508 -80.4097 291° West 74 85 500 360 Level Miami Center
08:03AM 27.6697 -80.4103 359° North 77 89 1,300 660 Climbing Miami Center
08:04AM 27.6914 -80.4019 19° North 78 90 1,900 540 Climbing Miami Center
08:05AM 27.7106 -80.3894 30° Northeast 79 91 2,400 480 Climbing Miami Center
08:06AM 27.7319 -80.3756 30° Northeast 80 92 2,900 240 Climbing Miami Center
08:07AM 27.7508 -80.3747 North 71 82 3,000  Climbing Miami Center
08:08AM 27.7372 -80.3939 231° Southwest 81 93 3,000  Level Miami Center
08:09AM 27.7253 -80.4136 236° Southwest 76 87 3,000  Level Miami Center
08:10AM 27.7122 -80.4344 235° Southwest 76 87 3,000  Level Miami Center
08:11AM 27.6997 -80.4533 233° Southwest 76 87 3,000  Level Miami Center
08:12AM 27.6883 -80.4742 238° Southwest 76 87 3,000  Level Miami Center
08:13AM 27.6706 -80.4908 220° Southwest 84 97 3,000  Level Miami Center
08:15AM 27.6869 -80.4600 59° Northeast 133 153 3,000  Level Miami Center
08:16AM 27.6728 -80.4214 112° Southeast 139 160 3,000 120 Level Miami Center
08:17AM 27.6578 -80.4283 202° Southwest 77 89 3,300 360 Climbing Miami Center
08:18AM 27.6625 -80.4428 290° West 52 60 3,800 360 Climbing Miami Center
08:19AM 27.6661 -80.4558 287° West 46 53 4,100 120 Climbing Miami Center
08:20AM 27.6731 -80.4758 291° West 63 72 4,100 -60 Level Miami Center
08:21AM 27.6806 -80.4942 295° West 63 72 4,000 -60 Descending Miami Center
08:22AM 27.6992 -80.4675 52° Northeast 133 153 4,000  Level Miami Center
08:23AM 27.6778 -80.4444 136° Southeast 108 124 4,000  Level Miami Center
08:24AM 27.6728 -80.4606 251° West 57 66 4,000  Level Miami Center
08:25AM 27.6733 -80.4761 272° West 59 68 4,000  Level Miami Center
08:26AM 27.6806 -80.4939 295° West 59 68 4,000  Level Miami Center
08:27AM 27.7017 -80.4831 24° Northeast 118 136 4,100  Climbing Miami Center
08:28AM 27.6883 -80.4461 112° Southeast 133 153 4,100 -60 Level Miami Center
08:29AM 27.6839 -80.4631 254° West 65 75 4,000 -60 Descending Miami Center
08:30AM 27.6756 -80.4722 224° Southwest 91 105 4,000  Level Miami Center
08:31AM 27.6658 -80.4333 106° East 146 168 4,000  Level Miami Center
08:32AM 27.6678 -80.3897 87° East 153 176 4,100  Climbing Miami Center
08:33AM 27.6675 -80.3286 90° East 157 181 4,000  Descending Miami Center
08:34AM 27.6669 -80.2756 91° East 160 184 4,100 -240 Climbing Miami Center
08:35AM 27.6678 -80.2272 89° East 160 184 3,600 -720 Descending Miami Center
08:36AM 27.6411 -80.2025 141° Southeast 139 160 2,700 -780 Descending Miami Center
08:37AM 27.6133 -80.2139 200° South 101 116 2,100 -300 Descending Miami Center
08:38AM 27.5953 -80.2286 216° Southwest 91 105 2,100 -120 Level Miami Center
08:39AM 27.5981 -80.2506 278° West 70 81 1,900 -300 Descending Miami Center
08:40AM 27.6042 -80.2711 289° West 68 78 1,600 -180 Descending Miami Center
08:41AM 27.6114 -80.2922 291° West 68 78 1,600  Level Miami Center
08:42AM 27.6181 -80.3117 291° West 68 78 1,600  Level Miami Center
08:43AM 27.6244 -80.3317 290° West 68 78 1,600 -300 Level Miami Center
08:44AM 27.6319 -80.3519 293° West 68 78 1,000 -540 Descending Miami Center
08:45AM 27.6397 -80.3731 293° West 69 79 600 -420 Descending Miami Center